• Join FlightAware (Why Join?)
  • Login
  • US Flag 
Gobble Gobble! 
10:59AM EST


 

Airport Tracker/Info


-or-


 

Live Flight TrackerFlight Track Log ✈ N612CT ✈ 05-Apr-2014 ✈ KGIF - KAPF

Flight Track Log - Related Links

Times and Time Zones

All times are in EDT time to prevent confusion due to time zone crossing. See the N612CT flight status page for this flight to view local times or setup timezone preferences in your user account.

Time Position Orientation Groundspeed Altitude Reporting Facility
EDT Latitude Longitude Course Direction KTS MPH feet Rate Location/Type
03:50PM 28.0500 -81.7667 180° South 93 107 800  Level Tampa TRACON
03:51PM 28.0000 -81.7667 180° South 131 151 1,600 720 Climbing Tampa TRACON
03:52PM 27.9711 -81.7536 158° South 29 33 2,500 660 Climbing Miami Center
03:53PM 27.9336 -81.7494 174° South 50 58 3,000 240 Climbing Miami Center
03:54PM 27.8900 -81.7453 175° South 126 145 3,000 480 Level Miami Center
03:55PM 27.8525 -81.7392 172° South 140 161 4,000 900 Climbing Miami Center
03:56PM 27.8153 -81.7350 174° South 140 161 4,800 720 Climbing Miami Center
03:57PM 27.7819 -81.7289 171° South 140 161 5,500 720 Climbing Miami Center
03:58PM 27.7444 -81.7250 175° South 135 155 6,300 720 Climbing Miami Center
03:59PM 27.7050 -81.7186 172° South 135 155 7,000 300 Climbing Miami Center
04:00PM 27.6614 -81.7144 175° South 147 169 7,000  Level Miami Center
04:01PM 27.6158 -81.7078 173° South 159 183 7,000  Level Miami Center
04:02PM 27.5742 -81.7036 175° South 165 190 7,000  Level Miami Center
04:03PM 27.5264 -81.6994 176° South 165 190 7,000  Level Miami Center
04:04PM 27.4806 -81.6950 175° South 160 184 7,000  Level Miami Center
04:05PM 27.4369 -81.6886 173° South 160 184 7,000  Level Miami Center
04:06PM 27.3933 -81.6819 172° South 160 184 7,000  Level Miami Center
04:07PM 27.3475 -81.6778 175° South 160 184 7,000  Level Miami Center
04:08PM 27.3039 -81.6714 173° South 160 184 7,000  Level Miami Center
04:09PM 27.2603 -81.6672 175° South 160 184 7,000  Level Miami Center
04:10PM 27.2167 -81.6608 173° South 160 184 7,000  Level Miami Center
04:11PM 27.1728 -81.6567 175° South 160 184 7,000  Level Miami Center
04:12PM 27.1272 -81.6522 175° South 160 184 7,000  Level Miami Center
04:13PM 27.0814 -81.6458 173° South 160 184 7,000  Level Miami Center
04:14PM 27.0356 -81.6392 173° South 160 184 7,000  Level Miami Center
04:15PM 26.9900 -81.6350 175° South 160 184 7,000  Level Miami Center
04:16PM 26.9442 -81.6308 175° South 160 184 7,000  Level Miami Center
04:17PM 26.8983 -81.6267 175° South 165 190 7,000 -240 Level Miami Center
04:18PM 26.8525 -81.6247 178° South 165 190 6,600 -480 Descending Miami Center
04:19PM 26.8025 -81.6203 175° South 177 204 6,100 -540 Descending Miami Center
04:20PM 26.7525 -81.6161 176° South 177 204 5,600 -540 Descending Miami Center
04:22PM 26.7065 -81.6390 204° Southwest  Level FlightAware Approximate
04:29PM 26.4228 -81.7184 189° South  Level FlightAware Approximate
04:30PM 26.3818 -81.7253 189° South  Level FlightAware Approximate
04:31PM 26.3409 -81.7321 188° South  Level FlightAware Approximate
04:32PM 26.3000 -81.7389 188° South  Level FlightAware Approximate
04:33PM 26.2590 -81.7457 188° South  Level FlightAware Approximate
04:34PM 26.2181 -81.7530 190° South  Level FlightAware Approximate
04:35PM 26.1774 -81.7612 190° South  Level FlightAware Approximate
04:36PM 26.1524 -81.7756 190° South  Level Estimated
04:37PM 26.1524 -81.7756 107° East  Level Estimated
04:38PM 26.1524 -81.7756 190° South  Level Estimated
04:39PM 26.1524 -81.7756 107° East  Level Estimated
04:40PM 26.1524 -81.7756 107° East  Level Estimated